Time;durP1;ratioP1;P1;durP2;ratioP2;P2;SDS_P1;SDS_P2;PMS_P1;PMS_P2;Temp;Humidity;BMP_temperature;BMP_pressure;BME280_temperature;BME280_humidity;BME280_pressure;Samples;Min_cycle;Max_cycle;Signal;HPM_P1;HPM_P2
2022/11/08 00:02:33;;;;;;;9.93;3.38;;;12.40;91.80;;;;;;4995301;28;20035;-46
2022/11/08 00:16:09;;;;;;;14.68;3.85;;;12.30;91.70;;;;;;5010974;28;20092;-46
2022/11/08 00:18:54;;;;;;;12.70;3.75;;;12.20;91.70;;;;;;5014787;28;20080;-46
2022/11/08 00:21:23;;;;;;;10.82;3.92;;;12.20;91.80;;;;;;5008320;28;20026;-46
2022/11/08 00:23:50;;;;;;;;;;;12.20;91.80;;;;;;5014599;28;20026;-46
2022/11/08 00:26:18;;;;;;;13.43;3.72;;;12.20;91.90;;;;;;5008901;28;19914;-47
2022/11/08 00:28:45;;;;;;;17.52;4.35;;;12.20;92.00;;;;;;4994447;28;20045;-46
2022/11/08 00:31:14;;;;;;;11.27;3.45;;;12.20;91.90;;;;;;5008632;28;20125;-45
2022/11/08 00:33:39;;;;;;;10.27;3.70;;;12.30;92.00;;;;;;5011091;28;20144;-46
2022/11/08 00:36:07;;;;;;;14.40;5.00;;;12.30;91.90;;;;;;4994964;28;20110;-45
2022/11/08 00:38:33;;;;;;;15.95;4.93;;;12.30;91.90;;;;;;4994973;28;20022;-45
2022/11/08 00:41:00;;;;;;;9.30;3.50;;;12.30;91.90;;;;;;4994928;28;20510;-46
2022/11/08 00:43:27;;;;;;;11.20;3.92;;;12.30;91.80;;;;;;4994864;28;20080;-45
2022/11/08 00:45:54;;;;;;;8.25;3.00;;;12.40;91.80;;;;;;5009162;28;20497;-45
2022/11/08 00:48:20;;;;;;;15.52;4.30;;;12.30;91.70;;;;;;5009352;28;20069;-45
2022/11/08 00:50:50;;;;;;;12.55;3.45;;;12.40;91.70;;;;;;4994819;28;20032;-48
2022/11/08 00:53:16;;;;;;;15.52;3.97;;;12.40;91.70;;;;;;4994412;28;20452;-45
2022/11/08 00:55:42;;;;;;;8.60;3.63;;;12.30;91.70;;;;;;4995011;28;20034;-45
2022/11/08 00:58:10;;;;;;;12.60;3.53;;;12.40;91.70;;;;;;4994914;28;20022;-46
2022/11/08 01:00:40;;;;;;;13.85;4.95;;;12.40;91.70;;;;;;5009507;28;20022;-45
2022/11/08 01:03:19;;;;;;;8.55;3.72;;;12.40;91.60;;;;;;4994341;28;20037;-45
2022/11/08 01:05:46;;;;;;;11.10;4.03;;;12.40;91.50;;;;;;4994281;28;20061;-45
2022/11/08 01:08:13;;;;;;;10.88;3.15;;;12.40;91.50;;;;;;4976854;28;20442;-46
2022/11/08 01:10:50;;;;;;;10.68;3.17;;;12.40;91.50;;;;;;4992889;28;20042;-45
2022/11/08 01:13:19;;;;;;;11.18;4.50;;;12.40;91.50;;;;;;4976908;28;20042;-44
2022/11/08 01:16:21;;;;;;;11.55;3.40;;;12.40;91.50;;;;;;5009740;28;20030;-47
2022/11/08 01:18:51;;;;;;;11.25;4.35;;;12.40;91.40;;;;;;4994360;28;20039;-45
2022/11/08 01:21:19;;;;;;;10.25;4.00;;;12.40;91.40;;;;;;4994174;28;20022;-45
2022/11/08 01:23:46;;;;;;;12.18;3.53;;;12.40;91.50;;;;;;4993313;28;20038;-45
2022/11/08 01:26:32;;;;;;;10.25;3.42;;;12.40;91.40;;;;;;4994204;28;20443;-45
2022/11/08 01:29:00;;;;;;;9.80;3.78;;;12.40;91.30;;;;;;4993443;28;20046;-47
2022/11/08 01:31:28;;;;;;;10.07;3.45;;;12.40;91.40;;;;;;5012639;28;20359;-45
2022/11/08 01:33:57;;;;;;;12.38;3.53;;;12.40;91.50;;;;;;4997642;28;20042;-45
2022/11/08 01:36:29;;;;;;;14.68;4.15;;;12.40;91.40;;;;;;4992984;28;20106;-45
2022/11/08 01:38:55;;;;;;;11.10;3.75;;;12.40;91.40;;;;;;4993930;28;20101;-45
2022/11/08 01:41:23;;;;;;;14.50;3.92;;;12.40;91.40;;;;;;4992574;28;20035;-45
2022/11/08 01:44:14;;;;;;;13.10;3.65;;;12.40;91.40;;;;;;4994827;28;20034;-44
2022/11/08 01:46:45;;;;;;;8.75;3.08;;;12.40;91.30;;;;;;5009317;28;20121;-45
2022/11/08 01:49:35;;;;;;;14.48;3.85;;;12.40;91.40;;;;;;4993636;28;20026;-45
2022/11/08 01:52:20;;;;;;;13.77;3.88;;;12.40;91.40;;;;;;4993928;28;20058;-44
2022/11/08 01:54:49;;;;;;;10.52;3.65;;;12.40;91.50;;;;;;4993084;28;20473;-44
2022/11/08 01:57:55;;;;;;;12.98;4.35;;;12.40;91.50;;;;;;5006228;28;20031;-44
2022/11/08 02:00:21;;;;;;;13.60;3.70;;;12.40;91.40;;;;;;5010132;28;20037;-45
2022/11/08 02:02:54;;;;;;;8.68;3.63;;;12.40;91.40;;;;;;5003457;28;20039;-44
2022/11/08 02:05:25;;;;;;;8.40;3.35;;;12.40;91.40;;;;;;4992608;28;20046;-46
2022/11/08 02:08:24;;;;;;;13.50;3.47;;;12.40;91.30;;;;;;4992533;28;20101;-45
2022/11/08 02:10:52;;;;;;;11.48;3.20;;;12.40;91.20;;;;;;4993716;28;20364;-45
2022/11/08 02:13:23;;;;;;;13.90;3.67;;;12.50;91.10;;;;;;5006283;28;20030;-45
2022/11/08 02:15:52;;;;;;;12.68;3.08;;;12.50;91.00;;;;;;5006556;28;20117;-44
2022/11/08 02:18:20;;;;;;;9.35;2.88;;;12.40;90.90;;;;;;4993347;28;20121;-44
2022/11/08 02:21:10;;;;;;;9.07;3.40;;;12.50;91.00;;;;;;4976368;28;20058;-44
2022/11/08 02:23:51;;;;;;;11.52;3.53;;;12.50;91.00;;;;;;4994803;28;20030;-45
2022/11/08 02:26:22;;;;;;;7.65;2.65;;;12.40;90.90;;;;;;4997233;28;20030;-45
2022/11/08 02:28:50;;;;;;;12.13;3.55;;;12.40;90.90;;;;;;5000595;28;20032;-46
2022/11/08 02:31:22;;;;;;;8.07;3.05;;;12.40;90.90;;;;;;5016138;28;20037;-45
2022/11/08 02:33:49;;;;;;;8.75;2.90;;;12.50;90.90;;;;;;5013313;28;20670;-44
2022/11/08 02:36:22;;;;;;;9.77;2.60;;;12.50;90.80;;;;;;4997422;28;20428;-44
2022/11/08 02:38:54;;;;;;;9.57;2.97;;;12.50;90.70;;;;;;4996307;28;20039;-44
2022/11/08 02:41:19;;;;;;;9.27;2.75;;;12.50;90.70;;;;;;4996409;28;20039;-45
2022/11/08 02:43:45;;;;;;;9.77;3.08;;;12.50;90.60;;;;;;5008271;28;20042;-44
2022/11/08 02:46:13;;;;;;;11.15;2.75;;;12.50;90.50;;;;;;5015846;28;20025;-45
2022/11/08 02:48:40;;;;;;;9.38;3.10;;;12.50;90.50;;;;;;5015131;28;20034;-46
2022/11/08 02:51:06;;;;;;;9.27;3.58;;;12.50;90.50;;;;;;5015808;28;20025;-46
2022/11/08 02:53:33;;;;;;;9.00;3.33;;;12.50;90.40;;;;;;5006561;28;20049;-44
2022/11/08 02:56:01;;;;;;;13.18;4.18;;;12.40;90.30;;;;;;4996963;28;20030;-44
2022/11/08 02:58:30;;;;;;;10.30;2.50;;;12.50;90.30;;;;;;4997109;28;20030;-45
2022/11/08 03:00:57;;;;;;;12.15;2.80;;;12.40;90.20;;;;;;5000620;28;20721;-46
2022/11/08 03:03:24;;;;;;;9.90;3.58;;;12.40;90.20;;;;;;4996956;28;20026;-44
2022/11/08 03:05:50;;;;;;;9.75;2.72;;;12.50;90.10;;;;;;4996986;28;20041;-44
2022/11/08 03:08:17;;;;;;;9.15;3.10;;;12.50;90.00;;;;;;4995658;28;20026;-45
2022/11/08 03:10:43;;;;;;;9.00;3.30;;;12.40;89.90;;;;;;4996639;28;20092;-45
2022/11/08 03:13:10;;;;;;;15.65;3.60;;;12.40;90.00;;;;;;5008643;28;20033;-45
2022/11/08 03:15:37;;;;;;;12.02;4.75;;;12.40;89.90;;;;;;5014785;28;20076;-45
2022/11/08 03:18:05;;;;;;;9.60;2.95;;;12.40;89.90;;;;;;5015993;28;20481;-44
2022/11/08 03:20:32;;;;;;;13.10;3.03;;;12.40;90.00;;;;;;5002612;28;20101;-44
2022/11/08 03:23:04;;;;;;;11.75;3.60;;;12.40;90.00;;;;;;4996518;28;20088;-45
2022/11/08 03:25:30;;;;;;;9.13;2.60;;;12.40;89.90;;;;;;4995274;28;20030;-45
2022/11/08 03:28:02;;;;;;;7.15;2.65;;;12.40;89.80;;;;;;4996545;28;20026;-45
2022/11/08 03:30:27;;;;;;;12.43;2.70;;;12.40;89.80;;;;;;5009700;28;20022;-45
2022/11/08 03:32:55;;;;;;;7.20;2.50;;;12.30;89.90;;;;;;5010476;28;20482;-44
2022/11/08 03:35:22;;;;;;;13.75;3.83;;;12.30;89.90;;;;;;4994613;28;20470;-44
2022/11/08 03:37:54;;;;;;;11.65;3.08;;;12.30;89.80;;;;;;5011515;28;20056;-45
2022/11/08 03:40:31;;;;;;;7.78;2.70;;;12.20;89.80;;;;;;5012429;28;20040;-46
2022/11/08 03:42:58;;;;;;;8.65;2.45;;;12.20;89.90;;;;;;5015765;28;20113;-45
2022/11/08 03:45:27;;;;;;;18.25;3.38;;;12.20;89.80;;;;;;5013954;28;20080;-45
2022/11/08 03:48:03;;;;;;;9.63;2.53;;;12.20;89.70;;;;;;5001099;28;20042;-44
2022/11/08 03:50:31;;;;;;;8.23;3.25;;;12.20;89.80;;;;;;4995272;28;20034;-45
2022/11/08 03:52:56;;;;;;;7.95;2.75;;;12.10;89.80;;;;;;4995556;28;20030;-46
2022/11/08 03:55:28;;;;;;;17.45;3.85;;;12.00;89.80;;;;;;4996049;28;20026;-46
2022/11/08 03:57:57;;;;;;;14.10;4.00;;;12.10;90.10;;;;;;4994906;28;20023;-45
2022/11/08 04:00:27;;;;;;;10.23;3.50;;;12.00;90.00;;;;;;5008342;28;20030;-44
2022/11/08 04:03:02;;;;;;;10.93;3.67;;;12.00;90.10;;;;;;4981393;28;20038;-45
2022/11/08 04:05:27;;;;;;;14.15;3.30;;;11.90;90.10;;;;;;5015578;28;20022;-44
2022/11/08 04:07:56;;;;;;;10.25;3.58;;;11.90;90.30;;;;;;5014155;28;20037;-45
2022/11/08 04:10:23;;;;;;;14.73;3.03;;;11.90;90.30;;;;;;5005360;28;20030;-45
2022/11/08 04:15:34;;;;;;;10.27;2.70;;;11.80;90.40;;;;;;5003926;28;20126;-46
2022/11/08 04:23:35;;;;;;;15.88;3.42;;;11.70;90.40;;;;;;4995145;28;20065;-44
2022/11/08 04:26:07;;;;;;;10.63;2.70;;;11.70;90.60;;;;;;4994074;28;20038;-45
2022/11/08 04:28:37;;;;;;;10.65;3.72;;;11.60;90.60;;;;;;4982537;28;20046;-44
2022/11/08 04:31:10;;;;;;;10.93;3.05;;;11.50;90.70;;;;;;5007917;28;20415;-45
2022/11/08 04:33:36;;;;;;;8.15;3.70;;;11.50;90.80;;;;;;5013826;28;20045;-45
2022/11/08 04:36:05;;;;;;;12.98;3.53;;;11.40;90.90;;;;;;4993221;28;20055;-44
2022/11/08 04:38:33;;;;;;;8.30;3.28;;;11.50;91.00;;;;;;4994123;28;20092;-47
2022/11/08 04:41:11;;;;;;;13.80;3.30;;;11.50;90.90;;;;;;5006960;28;20130;-44
2022/11/08 04:43:39;;;;;;;11.45;3.15;;;11.40;91.00;;;;;;4993886;28;20038;-47
2022/11/08 04:46:17;;;;;;;13.70;3.95;;;11.40;91.00;;;;;;5010646;28;20036;-45
2022/11/08 04:48:45;;;;;;;6.57;3.42;;;11.30;91.00;;;;;;5014554;28;20070;-44
2022/11/08 04:51:36;;;;;;;10.57;3.50;;;11.40;91.10;;;;;;4996880;28;20475;-44
2022/11/08 04:54:06;;;;;;;13.55;3.03;;;11.30;91.10;;;;;;4993528;28;20743;-45
2022/11/08 04:56:41;;;;;;;10.10;3.90;;;11.30;91.20;;;;;;4995004;28;20101;-44
2022/11/08 04:59:10;;;;;;;11.50;3.78;;;11.20;91.20;;;;;;4995846;28;20041;-45
2022/11/08 05:01:38;;;;;;;12.20;3.15;;;11.20;91.20;;;;;;5011724;28;20022;-44
2022/11/08 05:04:04;;;;;;;7.35;3.20;;;11.20;91.20;;;;;;5013351;28;20022;-44
2022/11/08 05:06:31;;;;;;;14.07;5.40;;;11.20;91.30;;;;;;5013171;28;20485;-44
2022/11/08 05:08:59;;;;;;;14.02;4.82;;;11.20;91.20;;;;;;5001463;28;20054;-45
2022/11/08 05:11:31;;;;;;;13.02;4.25;;;11.10;91.20;;;;;;4994790;28;20069;-44
2022/11/08 05:14:02;;;;;;;14.77;4.03;;;11.10;91.30;;;;;;4996154;28;20036;-45
2022/11/08 05:16:31;;;;;;;15.35;4.45;;;11.00;91.30;;;;;;5013571;28;20800;-45
2022/11/08 05:18:58;;;;;;;13.48;4.47;;;11.00;91.40;;;;;;5006974;28;20054;-44
2022/11/08 05:24:15;;;;;;;10.13;4.30;;;11.00;91.30;;;;;;4994641;28;20037;-44
2022/11/08 05:26:44;;;;;;;11.82;4.93;;;11.00;91.40;;;;;;4994263;28;20026;-44
2022/11/08 05:29:13;;;;;;;11.17;4.67;;;11.00;91.30;;;;;;4983715;28;20034;-43
2022/11/08 05:31:41;;;;;;;11.93;4.70;;;11.00;91.30;;;;;;5012184;28;20669;-44
2022/11/08 05:34:08;;;;;;;13.30;4.45;;;10.90;91.30;;;;;;4993466;28;20375;-45
2022/11/08 05:36:34;;;;;;;11.70;4.47;;;10.90;91.40;;;;;;4993965;28;20018;-45
2022/11/08 05:39:01;;;;;;;15.52;4.80;;;10.90;91.30;;;;;;4994041;28;20101;-44
2022/11/08 05:41:31;;;;;;;13.65;4.68;;;10.90;91.30;;;;;;5008457;28;20019;-44
2022/11/08 05:43:58;;;;;;;15.15;4.97;;;10.90;91.30;;;;;;5000526;28;20467;-43
2022/11/08 05:46:25;;;;;;;14.82;4.63;;;10.90;91.30;;;;;;5008582;28;20042;-44
2022/11/08 05:48:51;;;;;;;9.60;4.70;;;10.90;91.30;;;;;;4993917;28;20038;-45
2022/11/08 05:51:19;;;;;;;15.23;5.03;;;10.80;91.30;;;;;;5000793;28;20036;-45
2022/11/08 05:53:47;;;;;;;9.95;5.65;;;10.80;91.30;;;;;;4992824;28;20061;-44
2022/11/08 05:56:15;;;;;;;12.73;4.93;;;10.80;91.30;;;;;;4993894;28;20053;-44
2022/11/08 05:58:41;;;;;;;14.57;5.20;;;10.70;91.40;;;;;;4999628;28;20117;-43
2022/11/08 06:01:12;;;;;;;13.63;5.15;;;10.70;91.40;;;;;;5011844;28;20109;-44
2022/11/08 06:03:39;;;;;;;10.75;4.20;;;10.70;91.60;;;;;;5012308;28;20033;-44
2022/11/08 06:06:19;;;;;;;9.80;4.53;;;10.70;91.70;;;;;;4999417;28;20061;-45
2022/11/08 06:08:46;;;;;;;15.57;5.90;;;10.70;91.70;;;;;;4992677;28;20097;-45
2022/11/08 06:11:20;;;;;;;13.30;5.57;;;10.70;91.60;;;;;;4992780;28;20040;-44
2022/11/08 06:13:46;;;;;;;16.63;5.65;;;10.70;91.60;;;;;;5002413;28;20362;-43
2022/11/08 06:16:24;;;;;;;14.25;5.57;;;10.70;91.70;;;;;;5012075;28;20030;-43
2022/11/08 06:18:51;;;;;;;12.90;5.38;;;10.70;91.60;;;;;;5012796;28;20108;-45
2022/11/08 06:21:21;;;;;;;11.77;4.25;;;10.70;91.70;;;;;;5006628;28;20033;-44
2022/11/08 06:23:52;;;;;;;11.65;5.60;;;10.70;91.60;;;;;;5009156;28;20215;-43
2022/11/08 06:26:28;;;;;;;9.20;4.90;;;10.70;91.60;;;;;;4994362;28;20057;-45
2022/11/08 06:28:55;;;;;;;11.35;5.30;;;10.70;91.50;;;;;;5006175;28;20052;-44
2022/11/08 06:31:22;;;;;;;12.00;4.65;;;10.70;91.50;;;;;;4999533;28;20042;-45
2022/11/08 06:33:51;;;;;;;11.48;4.70;;;10.70;91.50;;;;;;4993567;28;20045;-43
2022/11/08 06:36:20;;;;;;;14.10;4.45;;;10.70;91.50;;;;;;4993281;28;20023;-43
2022/11/08 06:38:56;;;;;;;9.80;4.50;;;10.80;91.50;;;;;;4992251;28;20115;-44
2022/11/08 06:41:22;;;;;;;12.85;4.72;;;10.70;91.50;;;;;;4992548;28;20031;-45
2022/11/08 06:43:48;;;;;;;13.88;5.40;;;10.80;91.50;;;;;;5006609;28;20033;-44
2022/11/08 06:46:17;;;;;;;9.45;4.28;;;10.80;91.50;;;;;;5011128;28;20026;-44
2022/11/08 06:48:44;;;;;;;10.18;3.63;;;10.90;91.50;;;;;;4993619;28;20097;-45
2022/11/08 06:51:11;;;;;;;9.77;5.88;;;10.90;91.40;;;;;;4993486;28;20416;-44
2022/11/08 06:53:38;;;;;;;11.40;4.90;;;10.90;91.20;;;;;;4992536;28;20085;-44
2022/11/08 06:56:06;;;;;;;9.25;4.03;;;10.90;91.10;;;;;;4991174;28;20474;-44
2022/11/08 06:58:33;;;;;;;11.25;4.45;;;10.90;91.00;;;;;;5006248;28;20034;-44
2022/11/08 07:01:09;;;;;;;9.15;3.80;;;10.90;90.90;;;;;;5002979;28;20463;-44
2022/11/08 07:03:36;;;;;;;10.25;3.90;;;10.90;90.80;;;;;;4992197;28;20031;-45
2022/11/08 07:06:03;;;;;;;8.85;3.78;;;10.90;90.60;;;;;;4993131;28;20734;-45
2022/11/08 07:08:33;;;;;;;11.43;4.28;;;10.90;90.60;;;;;;4993499;28;20037;-45
2022/11/08 07:11:01;;;;;;;8.75;3.63;;;10.90;90.50;;;;;;4996588;28;20468;-44
2022/11/08 07:13:28;;;;;;;8.95;4.05;;;10.90;90.40;;;;;;5011532;28;20042;-43
2022/11/08 07:15:59;;;;;;;15.20;5.03;;;10.90;90.50;;;;;;4995506;28;20018;-44
2022/11/08 07:18:27;;;;;;;12.82;3.63;;;10.90;90.40;;;;;;4996265;28;20049;-44
2022/11/08 07:20:59;;;;;;;9.90;4.18;;;10.90;90.50;;;;;;4995174;28;20344;-44
2022/11/08 07:23:31;;;;;;;6.53;3.63;;;10.90;90.40;;;;;;4994369;28;20049;-44
2022/11/08 07:26:07;;;;;;;12.07;4.35;;;11.00;90.40;;;;;;4995790;28;20031;-43
2022/11/08 07:28:34;;;;;;;11.52;3.67;;;11.00;90.30;;;;;;5007518;28;20828;-44
2022/11/08 07:31:02;;;;;;;7.53;3.78;;;11.10;90.20;;;;;;4994044;28;20061;-45
2022/11/08 07:33:31;;;;;;;10.82;3.95;;;11.20;90.00;;;;;;4994288;28;20031;-44
2022/11/08 07:35:59;;;;;;;10.65;3.53;;;11.20;90.00;;;;;;4995541;28;20045;-43
2022/11/08 07:38:27;;;;;;;8.93;3.40;;;11.20;89.70;;;;;;4996471;28;20061;-43
2022/11/08 07:40:58;;;;;;;8.70;3.25;;;11.20;89.50;;;;;;4996300;28;20105;-45
2022/11/08 07:43:28;;;;;;;6.97;3.22;;;11.30;89.50;;;;;;5010934;28;20025;-44
2022/11/08 07:45:59;;;;;;;5.97;3.03;;;11.40;89.30;;;;;;4996025;28;20038;-45
2022/11/08 07:48:26;;;;;;;10.85;4.28;;;11.40;89.30;;;;;;4996034;28;20026;-46
2022/11/08 07:50:52;;;;;;;6.85;3.10;;;11.40;89.30;;;;;;4995136;28;20034;-44
2022/11/08 07:53:21;;;;;;;9.25;3.70;;;11.40;89.10;;;;;;4995007;28;20022;-45
2022/11/08 07:55:49;;;;;;;13.55;4.38;;;11.40;89.10;;;;;;4994965;28;20030;-46
2022/11/08 07:58:16;;;;;;;4.95;2.83;;;11.50;88.80;;;;;;5007445;28;20081;-44
2022/11/08 08:00:48;;;;;;;9.60;3.00;;;11.50;88.80;;;;;;5014604;28;20030;-45
2022/11/08 08:03:17;;;;;;;9.15;3.47;;;11.50;88.60;;;;;;5015340;28;20026;-45
2022/11/08 08:05:50;;;;;;;7.47;3.25;;;11.60;88.50;;;;;;5010165;28;20037;-44
2022/11/08 08:08:17;;;;;;;6.30;2.80;;;11.60;88.30;;;;;;4995743;28;20353;-46
2022/11/08 08:10:46;;;;;;;10.85;2.53;;;11.60;88.00;;;;;;4995609;28;20026;-44
2022/11/08 08:13:12;;;;;;;8.02;3.28;;;11.70;87.80;;;;;;5007606;28;20033;-45
2022/11/08 08:15:39;;;;;;;5.82;2.72;;;11.70;87.80;;;;;;5012715;28;20026;-45
2022/11/08 08:18:12;;;;;;;7.40;3.70;;;11.70;87.50;;;;;;4995161;28;20043;-44
2022/11/08 08:20:38;;;;;;;6.45;2.63;;;11.80;87.40;;;;;;5006431;28;20038;-45
2022/11/08 08:23:06;;;;;;;8.65;3.17;;;11.80;87.10;;;;;;4995367;28;20030;-45
2022/11/08 08:25:33;;;;;;;9.48;2.70;;;11.80;86.90;;;;;;4995398;28;20113;-44
2022/11/08 08:28:00;;;;;;;5.50;2.00;;;11.90;86.60;;;;;;5008375;28;20034;-46
2022/11/08 08:30:27;;;;;;;10.45;2.58;;;12.00;86.30;;;;;;4993428;28;20460;-47
2022/11/08 08:33:02;;;;;;;8.95;2.33;;;11.90;86.10;;;;;;4994321;28;20026;-44
2022/11/08 08:35:29;;;;;;;5.40;2.05;;;12.00;86.10;;;;;;5012571;28;20062;-45
2022/11/08 08:38:00;;;;;;;5.63;3.35;;;12.00;85.90;;;;;;5009390;28;20042;-46
2022/11/08 08:40:26;;;;;;;8.82;2.53;;;12.10;85.50;;;;;;4994205;28;20022;-45
2022/11/08 08:42:56;;;;;;;5.88;2.35;;;12.10;85.20;;;;;;5004416;28;20110;-47
2022/11/08 08:45:23;;;;;;;5.47;2.10;;;12.20;84.90;;;;;;4993670;28;20129;-45
2022/11/08 08:47:56;;;;;;;7.68;2.22;;;12.20;84.80;;;;;;4993842;28;20034;-45
2022/11/08 08:50:33;;;;;;;11.27;2.67;;;12.30;84.70;;;;;;4994043;28;20093;-46
2022/11/08 08:53:02;;;;;;;6.15;2.35;;;12.40;84.60;;;;;;4994679;28;20408;-45
2022/11/08 08:55:28;;;;;;;7.25;2.17;;;12.40;84.40;;;;;;4993856;28;20125;-46
2022/11/08 08:57:54;;;;;;;6.30;2.38;;;12.40;84.20;;;;;;5006160;28;20030;-46
2022/11/08 09:00:21;;;;;;;8.30;2.13;;;12.40;83.80;;;;;;5014447;28;20044;-45
2022/11/08 09:02:49;;;;;;;7.80;1.83;;;12.50;83.40;;;;;;5003165;28;20053;-46
2022/11/08 09:05:16;;;;;;;6.05;2.53;;;12.60;83.20;;;;;;4994839;28;20022;-46
2022/11/08 09:07:43;;;;;;;7.25;2.58;;;12.70;82.20;;;;;;4993824;28;20034;-46
2022/11/08 09:10:10;;;;;;;10.80;2.67;;;12.90;82.20;;;;;;4994339;28;20022;-46
2022/11/08 09:12:37;;;;;;;5.70;2.60;;;12.90;81.90;;;;;;5006557;28;20033;-46
2022/11/08 09:15:07;;;;;;;4.18;1.58;;;13.10;81.70;;;;;;5000175;28;20386;-46
2022/11/08 09:17:35;;;;;;;5.55;1.65;;;13.20;81.20;;;;;;4993408;28;20034;-46
2022/11/08 09:20:02;;;;;;;7.88;2.10;;;13.30;81.20;;;;;;4994450;28;20038;-46
2022/11/08 09:22:32;;;;;;;4.82;1.92;;;13.40;80.80;;;;;;5005102;28;20038;-46
2022/11/08 09:25:00;;;;;;;9.10;2.40;;;13.50;80.40;;;;;;4977833;28;20092;-47
2022/11/08 09:27:28;;;;;;;8.15;2.72;;;13.50;79.70;;;;;;5007042;28;20136;-46
2022/11/08 09:29:54;;;;;;;6.88;2.17;;;13.40;80.30;;;;;;4997165;28;20444;-47
2022/11/08 09:32:21;;;;;;;8.20;2.38;;;13.50;80.20;;;;;;5009779;28;20117;-46
2022/11/08 09:34:48;;;;;;;6.18;1.73;;;13.70;79.90;;;;;;5009652;28;20062;-46
2022/11/08 09:37:14;;;;;;;6.65;2.03;;;13.70;79.70;;;;;;4994155;28;20061;-49
2022/11/08 09:39:40;;;;;;;7.30;1.95;;;13.90;79.10;;;;;;5006602;28;20530;-46
2022/11/08 09:42:24;;;;;;;5.78;2.28;;;13.80;78.60;;;;;;5005571;28;20034;-46
2022/11/08 09:45:05;;;;;;;4.40;1.95;;;13.80;79.20;;;;;;5012222;28;20052;-45
2022/11/08 09:47:39;;;;;;;7.05;2.28;;;13.70;79.30;;;;;;4997343;28;20030;-48
2022/11/08 09:50:31;;;;;;;7.25;2.30;;;13.60;79.80;;;;;;4993142;28;20035;-46
2022/11/08 09:53:08;;;;;;;8.48;1.95;;;13.60;79.60;;;;;;4994048;28;20053;-45
2022/11/08 09:56:20;;;;;;;6.70;1.85;;;13.70;79.70;;;;;;5008267;28;20029;-45
2022/11/08 09:59:26;;;;;;;6.43;2.33;;;13.70;79.50;;;;;;4923075;29;20040;-45
2022/11/08 10:01:55;;;;;;;3.45;1.45;;;13.70;79.60;;;;;;4934268;29;20543;-46
2022/11/08 10:04:26;;;;;;;6.40;1.85;;;13.80;79.00;;;;;;4933292;29;20058;-46
2022/11/08 10:07:22;;;;;;;5.57;2.03;;;13.80;78.80;;;;;;4917564;29;20047;-46
2022/11/08 10:10:05;;;;;;;5.68;1.83;;;13.80;78.60;;;;;;4934005;29;20035;-47
2022/11/08 10:13:08;;;;;;;5.25;1.70;;;13.90;78.70;;;;;;4948711;29;20039;-46
2022/11/08 10:16:10;;;;;;;3.83;1.60;;;13.90;77.90;;;;;;4933865;29;20454;-46
2022/11/08 10:18:50;;;;;;;3.10;1.20;;;13.90;77.80;;;;;;4933431;29;20646;-46
2022/11/08 10:21:56;;;;;;;6.07;1.40;;;14.00;77.70;;;;;;4933498;29;20036;-47
2022/11/08 10:24:37;;;;;;;5.05;1.92;;;14.00;77.40;;;;;;4933833;29;20035;-47
2022/11/08 10:27:11;;;;;;;5.03;1.80;;;13.90;77.60;;;;;;4936395;29;20066;-46
2022/11/08 10:29:50;;;;;;;4.13;1.70;;;14.00;77.20;;;;;;4917436;29;20469;-46
2022/11/08 10:32:24;;;;;;;6.22;1.80;;;14.00;77.90;;;;;;4956394;28;20041;-51
2022/11/08 10:35:27;;;;;;;6.35;2.17;;;14.00;78.20;;;;;;5008111;28;20037;-47
2022/11/08 10:38:00;;;;;;;5.90;1.95;;;14.00;77.60;;;;;;4997071;28;20061;-48
2022/11/08 10:40:54;;;;;;;5.00;1.85;;;14.00;76.90;;;;;;5010623;28;20328;-46
2022/11/08 10:43:35;;;;;;;5.32;2.03;;;14.00;77.30;;;;;;5012586;28;20418;-46
2022/11/08 10:46:10;;;;;;;4.85;2.10;;;14.10;77.20;;;;;;5015791;28;20042;-49
2022/11/08 10:48:39;;;;;;;6.38;1.80;;;14.00;77.60;;;;;;4996632;28;20035;-47
2022/11/08 10:51:06;;;;;;;5.78;1.80;;;14.10;77.10;;;;;;4997673;28;20038;-47
2022/11/08 10:53:33;;;;;;;4.97;1.60;;;14.00;77.60;;;;;;4996936;28;20045;-47
2022/11/08 10:56:19;;;;;;;4.97;1.98;;;14.00;77.40;;;;;;5011510;28;20030;-47
2022/11/08 10:58:47;;;;;;;3.42;1.52;;;14.00;77.40;;;;;;5016951;28;20443;-46
2022/11/08 11:01:22;;;;;;;8.65;1.65;;;14.00;77.30;;;;;;5016022;28;20125;-46
2022/11/08 11:03:51;;;;;;;5.75;1.60;;;14.10;77.50;;;;;;4996251;28;20392;-46
2022/11/08 11:06:28;;;;;;;4.90;1.98;;;14.10;77.00;;;;;;4996297;28;20126;-46
2022/11/08 11:09:18;;;;;;;5.30;1.80;;;14.20;76.90;;;;;;5007449;28;20030;-46
2022/11/08 11:11:48;;;;;;;;;;;14.30;76.80;;;;;;4994683;28;20101;-47
2022/11/08 11:14:15;;;;;;;3.10;1.40;;;14.40;76.00;;;;;;4996192;28;19913;-50
2022/11/08 11:16:54;;;;;;;4.65;1.60;;;14.40;76.00;;;;;;4996278;28;20023;-46
2022/11/08 11:19:21;;;;;;;4.60;1.80;;;14.50;76.30;;;;;;5013087;28;20057;-48
2022/11/08 11:22:01;;;;;;;4.75;1.73;;;14.50;75.80;;;;;;5014855;28;20070;-49
2022/11/08 11:24:27;;;;;;;9.10;2.50;;;14.60;75.40;;;;;;5015207;28;20119;-46
2022/11/08 11:27:21;;;;;;;4.50;1.67;;;14.60;75.80;;;;;;4999160;28;20424;-47
2022/11/08 11:29:48;;;;;;;8.30;1.95;;;14.60;75.10;;;;;;4996056;28;20052;-46
2022/11/08 11:32:37;;;;;;;5.53;1.60;;;14.60;75.70;;;;;;5011441;28;20030;-46
2022/11/08 11:35:15;;;;;;;6.97;1.70;;;14.50;74.80;;;;;;4995963;28;20092;-47
2022/11/08 11:37:57;;;;;;;4.25;2.00;;;14.60;75.00;;;;;;4996565;28;20169;-49
2022/11/08 11:40:44;;;;;;;4.45;1.60;;;14.60;75.80;;;;;;5009472;28;20022;-46
2022/11/08 11:43:52;;;;;;;6.57;2.13;;;14.50;75.40;;;;;;5009492;28;20093;-47
2022/11/08 11:47:10;;;;;;;5.05;1.80;;;14.60;75.10;;;;;;4996386;28;20022;-47
2022/11/08 11:49:41;;;;;;;7.60;2.10;;;14.60;75.20;;;;;;4995931;28;20034;-48
2022/11/08 11:52:17;;;;;;;5.72;2.13;;;14.60;75.70;;;;;;4995275;28;20080;-47
2022/11/08 11:54:48;;;;;;;5.00;1.45;;;14.50;75.30;;;;;;5010385;28;20122;-46
2022/11/08 11:57:31;;;;;;;5.35;1.67;;;14.60;75.50;;;;;;4981798;28;20034;-46
2022/11/08 12:00:08;;;;;;;5.40;2.35;;;14.60;74.70;;;;;;5011319;28;20046;-47
2022/11/08 12:02:53;;;;;;;5.25;1.63;;;14.70;74.80;;;;;;5004035;28;20065;-48
2022/11/08 12:05:46;;;;;;;5.50;2.50;;;14.70;74.90;;;;;;5013760;28;20657;-47
2022/11/08 12:08:55;;;;;;;4.65;1.27;;;14.70;75.00;;;;;;5012294;28;20034;-47
2022/11/08 12:11:45;;;;;;;3.37;1.10;;;14.70;75.40;;;;;;4995580;28;20030;-46
2022/11/08 12:14:40;;;;;;;4.13;1.75;;;14.70;75.40;;;;;;4995312;28;20290;-46
2022/11/08 12:17:21;;;;;;;3.60;1.52;;;14.70;75.20;;;;;;4995115;28;20042;-47
2022/11/08 12:20:20;;;;;;;7.43;2.22;;;14.80;74.60;;;;;;4996087;28;20042;-47
2022/11/08 12:23:16;;;;;;;6.18;1.75;;;14.80;75.00;;;;;;4994490;28;20046;-47
2022/11/08 12:26:11;;;;;;;4.97;1.23;;;14.80;75.00;;;;;;4995346;28;20049;-49
2022/11/08 12:28:55;;;;;;;6.18;1.33;;;14.70;74.90;;;;;;4995741;28;20032;-48
2022/11/08 12:32:17;;;;;;;3.92;1.58;;;14.80;74.50;;;;;;5011028;28;20145;-47
2022/11/08 12:35:22;;;;;;;5.53;1.38;;;14.70;74.90;;;;;;5004919;28;20044;-48
2022/11/08 12:38:12;;;;;;;4.35;1.35;;;14.70;74.20;;;;;;5014989;28;20041;-47
2022/11/08 12:41:16;;;;;;;5.65;1.75;;;14.60;74.80;;;;;;5012793;28;20030;-47
2022/11/08 12:44:23;;;;;;;5.32;1.65;;;14.60;75.30;;;;;;5000143;28;20333;-47
2022/11/08 12:47:35;;;;;;;3.45;1.13;;;14.60;74.90;;;;;;4995454;28;20030;-46
2022/11/08 12:50:21;;;;;;;4.88;1.40;;;14.70;74.50;;;;;;4995099;28;20108;-46
2022/11/08 12:53:23;;;;;;;3.10;1.38;;;14.70;74.40;;;;;;4995379;28;20026;-52
2022/11/08 12:55:56;;;;;;;4.15;1.50;;;14.80;74.10;;;;;;5004207;28;20359;-47
2022/11/08 12:58:44;;;;;;;3.30;1.20;;;14.80;74.60;;;;;;5006515;28;20030;-47
2022/11/08 13:01:14;;;;;;;3.08;1.35;;;14.80;74.70;;;;;;4995112;28;20022;-46
2022/11/08 13:04:18;;;;;;;4.18;1.42;;;14.80;74.10;;;;;;4994891;28;20069;-47
2022/11/08 13:07:02;;;;;;;5.80;1.63;;;14.80;73.90;;;;;;4993986;28;20056;-48
2022/11/08 13:09:52;;;;;;;4.47;1.50;;;14.80;73.90;;;;;;5005482;28;20077;-46
2022/11/08 13:12:25;;;;;;;5.05;1.65;;;14.80;73.20;;;;;;5011573;28;20033;-46
2022/11/08 13:14:52;;;;;;;5.10;1.48;;;14.80;73.40;;;;;;4997138;28;20057;-46
2022/11/08 13:17:25;;;;;;;3.97;1.67;;;14.80;73.20;;;;;;5007573;28;20084;-47
2022/11/08 13:20:12;;;;;;;4.13;1.45;;;14.80;73.20;;;;;;4993747;28;20364;-47
2022/11/08 13:22:43;;;;;;;5.05;1.50;;;14.80;73.20;;;;;;4994352;28;20045;-47
2022/11/08 13:25:15;;;;;;;5.22;1.05;;;14.80;73.20;;;;;;4996150;28;20030;-46
2022/11/08 13:27:45;;;;;;;3.53;1.17;;;14.80;73.80;;;;;;5014165;28;20065;-47
2022/11/08 13:30:14;;;;;;;;;;;14.80;73.90;;;;;;4997611;28;20037;-46
2022/11/08 13:33:17;;;;;;;3.75;1.35;;;14.80;73.10;;;;;;4993201;28;19964;-47
2022/11/08 13:35:45;;;;;;;4.78;1.80;;;14.90;72.70;;;;;;4994379;28;20128;-47
2022/11/08 13:38:51;;;;;;;3.95;1.33;;;14.90;73.10;;;;;;4996115;28;20030;-47
2022/11/08 13:41:19;;;;;;;5.70;1.65;;;14.80;73.00;;;;;;5013813;28;20429;-49